createdAt,value
2022-12-12T00:01:33.423Z,57.53
2022-12-12T00:04:01.541Z,57.59
2022-12-12T00:06:29.353Z,56.81
2022-12-12T00:08:56.862Z,57.23
2022-12-12T00:11:25.510Z,57.10
2022-12-12T00:13:54.537Z,56.67
2022-12-12T00:16:22.836Z,56.38
2022-12-12T00:18:50.283Z,55.58
2022-12-12T00:21:24.220Z,55.68
2022-12-12T00:23:51.676Z,56.12
2022-12-12T00:26:22.680Z,56.41
2022-12-12T00:28:50.199Z,56.54
2022-12-12T00:31:17.975Z,57.92
2022-12-12T00:33:46.726Z,57.51
2022-12-12T00:36:14.700Z,56.94
2022-12-12T00:38:41.776Z,56.27
2022-12-12T00:41:09.341Z,56.25
2022-12-12T00:43:36.517Z,56.81
2022-12-12T00:46:04.249Z,57.12
2022-12-12T00:48:31.466Z,57.51
2022-12-12T00:50:58.934Z,56.81
2022-12-12T00:53:26.018Z,57.19
2022-12-12T00:55:58.112Z,56.84
2022-12-12T00:58:26.216Z,56.62
2022-12-12T01:00:54.496Z,57.07
2022-12-12T01:03:22.354Z,57.06
2022-12-12T01:05:49.598Z,57.17
2022-12-12T01:08:16.719Z,57.62
2022-12-12T01:10:43.901Z,56.61
2022-12-12T01:13:11.089Z,56.80
2022-12-12T01:15:38.201Z,56.61
2022-12-12T01:18:05.298Z,56.07
2022-12-12T01:20:32.461Z,56.01
2022-12-12T01:22:59.759Z,56.04
2022-12-12T01:25:26.882Z,55.44
2022-12-12T01:27:53.988Z,55.76
2022-12-12T01:30:23.043Z,55.62
2022-12-12T01:32:50.554Z,55.15
2022-12-12T01:35:18.166Z,54.83
2022-12-12T01:37:45.633Z,55.68
2022-12-12T01:40:25.410Z,56.67
2022-12-12T01:42:53.217Z,55.77
2022-12-12T01:46:00.067Z,55.62
2022-12-12T01:48:33.550Z,56.49
2022-12-12T01:51:05.437Z,56.34
2022-12-12T01:53:33.793Z,56.33
2022-12-12T01:56:07.983Z,56.31
2022-12-12T01:58:35.382Z,56.41
2022-12-12T02:01:02.581Z,55.61
2022-12-12T02:03:29.785Z,56.25
2022-12-12T02:06:03.259Z,56.96
2022-12-12T02:08:30.847Z,56.81
2022-12-12T02:10:58.459Z,56.26
2022-12-12T02:13:29.596Z,56.78
2022-12-12T02:16:18.146Z,58.08
2022-12-12T02:19:05.577Z,58.85
2022-12-12T02:21:53.851Z,58.22
2022-12-12T02:24:35.091Z,57.98
2022-12-12T02:27:29.307Z,57.25
2022-12-12T02:30:09.887Z,57.81
2022-12-12T02:33:21.444Z,58.42
2022-12-12T02:36:20.558Z,59.22
2022-12-12T02:39:18.322Z,60.07
2022-12-12T02:41:59.787Z,60.00
2022-12-12T02:44:54.320Z,59.86
2022-12-12T02:47:30.000Z,60.47
2022-12-12T02:50:17.140Z,60.32
2022-12-12T02:52:46.796Z,60.74
2022-12-12T02:55:15.611Z,60.57
2022-12-12T02:57:43.037Z,60.72
2022-12-12T03:00:16.896Z,59.63
2022-12-12T03:03:33.403Z,60.95
2022-12-12T03:06:27.027Z,61.40
2022-12-12T03:09:21.204Z,61.07
2022-12-12T03:12:15.711Z,61.05
2022-12-12T03:14:53.573Z,61.29
2022-12-12T03:18:01.706Z,61.21
2022-12-12T03:20:42.739Z,60.50
2022-12-12T03:23:16.071Z,60.99
2022-12-12T03:26:14.134Z,60.29
2022-12-12T03:29:08.706Z,59.92
2022-12-12T03:31:40.914Z,59.61
2022-12-12T03:34:17.593Z,59.71
2022-12-12T03:37:01.701Z,59.60
2022-12-12T03:39:44.108Z,58.62
2022-12-12T03:42:41.913Z,59.15
2022-12-12T03:45:15.133Z,58.58
2022-12-12T03:47:54.196Z,58.34
2022-12-12T03:50:25.769Z,57.95
2022-12-12T03:53:02.914Z,58.57
2022-12-12T03:55:42.131Z,58.86
2022-12-12T03:58:24.060Z,58.94
2022-12-12T04:00:53.584Z,58.96
2022-12-12T04:03:38.078Z,59.09
2022-12-12T04:06:31.373Z,59.01
2022-12-12T04:09:22.813Z,58.57
2022-12-12T04:12:59.081Z,59.50
2022-12-12T04:15:47.738Z,60.00
2022-12-12T04:18:36.592Z,59.05
2022-12-12T04:21:34.479Z,58.54
2022-12-12T04:24:16.575Z,58.65
2022-12-12T04:26:51.536Z,59.80
2022-12-12T04:29:45.893Z,59.65
2022-12-12T04:32:25.892Z,59.92
2022-12-12T04:35:12.567Z,59.89
2022-12-12T04:37:55.167Z,59.93
2022-12-12T04:40:41.189Z,59.71
2022-12-12T04:43:13.832Z,59.73
2022-12-12T04:46:01.702Z,59.67
2022-12-12T04:48:38.664Z,59.47
2022-12-12T04:51:08.479Z,59.31
2022-12-12T04:53:44.061Z,59.56
2022-12-12T04:56:17.899Z,60.33
2022-12-12T04:58:46.301Z,60.81
2022-12-12T05:01:30.970Z,61.19
2022-12-12T05:04:02.462Z,61.07
2022-12-12T05:06:43.877Z,61.21
2022-12-12T05:09:11.872Z,60.66
2022-12-12T05:11:39.087Z,60.44
2022-12-12T05:14:09.742Z,61.30
2022-12-12T05:16:47.279Z,61.88
2022-12-12T05:19:14.588Z,61.49
2022-12-12T05:21:41.672Z,60.89
2022-12-12T05:24:08.913Z,60.38
2022-12-12T05:26:37.205Z,60.33
2022-12-12T05:29:07.777Z,60.76
2022-12-12T05:31:35.471Z,60.96
2022-12-12T05:34:03.604Z,61.05
2022-12-12T05:36:30.939Z,61.17
2022-12-12T05:38:58.035Z,61.00
2022-12-12T05:41:25.272Z,61.28
2022-12-12T05:43:52.413Z,60.68
2022-12-12T05:46:19.624Z,61.61
2022-12-12T05:48:50.612Z,61.31
2022-12-12T05:51:19.064Z,61.55
2022-12-12T05:53:47.400Z,61.40
2022-12-12T05:56:14.678Z,61.87
2022-12-12T05:58:42.731Z,61.55
2022-12-12T06:01:10.517Z,61.14
2022-12-12T06:03:37.904Z,61.86
2022-12-12T06:06:05.333Z,61.80
2022-12-12T06:08:32.596Z,61.85
2022-12-12T06:10:59.893Z,61.26
2022-12-12T06:13:27.011Z,62.07
2022-12-12T06:15:54.255Z,62.42
2022-12-12T06:18:21.536Z,62.38
2022-12-12T06:20:48.754Z,62.24
2022-12-12T06:23:15.895Z,61.75
2022-12-12T06:25:43.040Z,61.41
2022-12-12T06:28:10.414Z,61.73
2022-12-12T06:30:37.636Z,61.28
2022-12-12T06:33:04.898Z,61.20
2022-12-12T06:35:32.018Z,61.88
2022-12-12T06:37:59.118Z,61.50
2022-12-12T06:40:26.150Z,61.34
2022-12-12T06:42:53.210Z,61.21
2022-12-12T06:45:20.300Z,61.02
2022-12-12T06:47:47.419Z,60.06
2022-12-12T06:50:17.873Z,60.36
2022-12-12T06:52:49.063Z,60.05
2022-12-12T06:55:16.236Z,59.45
2022-12-12T06:57:43.402Z,59.92
2022-12-12T07:00:11.095Z,59.54
2022-12-12T07:02:38.189Z,59.80
2022-12-12T07:05:05.882Z,60.48
2022-12-12T07:07:32.939Z,60.30
2022-12-12T07:10:00.474Z,60.67
2022-12-12T07:12:27.526Z,60.18
2022-12-12T07:14:54.592Z,59.66
2022-12-12T07:17:21.662Z,59.58
2022-12-12T07:19:48.885Z,59.50
2022-12-12T07:22:16.010Z,59.28
2022-12-12T07:24:43.113Z,59.46
2022-12-12T07:27:10.856Z,59.29
2022-12-12T07:29:38.014Z,59.31
2022-12-12T07:32:05.314Z,60.37
2022-12-12T07:34:32.629Z,60.29
2022-12-12T07:37:03.160Z,59.97
2022-12-12T07:39:32.764Z,59.29
2022-12-12T07:42:00.452Z,60.45
2022-12-12T07:44:27.668Z,60.16
2022-12-12T07:46:58.016Z,60.30
2022-12-12T07:49:25.699Z,60.17
2022-12-12T07:51:52.913Z,60.17
2022-12-12T07:54:20.090Z,59.71
2022-12-12T07:56:47.540Z,59.60
2022-12-12T07:59:14.836Z,59.24
2022-12-12T08:01:42.179Z,58.01
2022-12-12T08:04:09.254Z,57.89
2022-12-12T08:06:36.426Z,57.97
2022-12-12T08:09:03.851Z,57.46
2022-12-12T08:11:30.942Z,57.98
2022-12-12T08:13:58.296Z,58.17
2022-12-12T08:16:28.550Z,59.15
2022-12-12T08:18:58.231Z,58.70
2022-12-12T08:21:26.896Z,58.79
2022-12-12T08:23:58.757Z,58.30
2022-12-12T08:26:27.303Z,58.02
2022-12-12T08:28:55.476Z,57.48
2022-12-12T08:31:23.326Z,57.25
2022-12-12T08:33:51.187Z,56.99
2022-12-12T08:36:22.334Z,59.08
2022-12-12T08:38:50.361Z,58.55
2022-12-12T08:41:18.991Z,58.73
2022-12-12T08:43:46.446Z,58.90
2022-12-12T08:46:17.915Z,57.88
2022-12-12T08:48:47.136Z,57.76
2022-12-12T08:51:15.714Z,58.30
2022-12-12T08:53:50.976Z,57.86
2022-12-12T08:56:19.964Z,58.04
2022-12-12T08:58:47.322Z,58.28
2022-12-12T09:01:18.506Z,58.46
2022-12-12T09:03:46.358Z,58.37
2022-12-12T09:06:14.334Z,57.25
2022-12-12T09:08:42.659Z,57.70
2022-12-12T09:11:10.853Z,58.22
2022-12-12T09:13:38.877Z,57.37
2022-12-12T09:16:08.241Z,56.51
2022-12-12T09:18:36.681Z,56.62
2022-12-12T09:21:05.543Z,56.52
2022-12-12T09:23:33.716Z,55.89
2022-12-12T09:26:06.489Z,56.02
2022-12-12T09:28:34.792Z,55.76
2022-12-12T09:31:06.406Z,56.04
2022-12-12T09:33:35.336Z,56.87
2022-12-12T09:36:06.197Z,56.13
2022-12-12T09:38:34.610Z,55.82
2022-12-12T09:41:27.020Z,55.99
2022-12-12T09:44:10.044Z,56.99
2022-12-12T09:46:44.729Z,56.74
2022-12-12T09:49:19.283Z,57.06
2022-12-12T09:51:50.214Z,57.32
2022-12-12T09:54:21.981Z,55.87
2022-12-12T09:57:24.879Z,55.26
2022-12-12T10:00:09.605Z,55.57
2022-12-12T10:03:23.493Z,55.81
2022-12-12T10:06:35.805Z,55.51
2022-12-12T10:09:24.489Z,56.71
2022-12-12T10:11:55.206Z,56.40
2022-12-12T10:14:53.126Z,55.26
2022-12-12T10:17:29.040Z,56.64
2022-12-12T10:20:25.957Z,55.93
2022-12-12T10:23:25.591Z,56.76
2022-12-12T10:26:02.134Z,55.67
2022-12-12T10:28:32.258Z,57.07
2022-12-12T10:31:24.198Z,57.43
2022-12-12T10:34:28.023Z,57.38
2022-12-12T10:37:35.927Z,56.95
2022-12-12T10:40:38.172Z,56.31
2022-12-12T10:43:24.510Z,56.67
2022-12-12T10:46:11.241Z,56.02
2022-12-12T10:48:40.259Z,56.59
2022-12-12T10:51:12.722Z,56.99
2022-12-12T10:53:44.490Z,56.07
2022-12-12T10:56:25.165Z,55.78
2022-12-12T10:59:01.541Z,55.71
2022-12-12T11:02:08.309Z,55.92
2022-12-12T11:04:24.700Z,56.00
2022-12-12T11:06:58.324Z,56.09
2022-12-12T11:09:28.570Z,57.19
2022-12-12T11:12:09.971Z,57.01
2022-12-12T11:14:48.707Z,56.90
2022-12-12T11:17:31.387Z,56.43
2022-12-12T11:20:01.820Z,57.01
2022-12-12T11:22:32.535Z,57.48
2022-12-12T11:25:00.618Z,58.76
2022-12-12T11:27:35.207Z,57.63
2022-12-12T11:30:34.971Z,58.42
2022-12-12T11:33:06.006Z,58.91
2022-12-12T11:35:45.604Z,58.02
2022-12-12T11:38:22.829Z,58.05
2022-12-12T11:41:06.448Z,58.10
2022-12-12T11:43:48.532Z,57.50
2022-12-12T11:46:15.910Z,57.57
2022-12-12T11:48:52.516Z,57.25
2022-12-12T11:51:45.987Z,57.70
2022-12-12T11:54:32.233Z,57.34
2022-12-12T11:57:07.069Z,57.81
2022-12-12T11:59:55.015Z,56.81
2022-12-12T12:02:46.696Z,56.76
2022-12-12T12:06:14.102Z,57.20
2022-12-12T12:08:48.736Z,58.16
2022-12-12T12:11:44.785Z,57.72
2022-12-12T12:14:25.413Z,57.86
2022-12-12T12:17:40.541Z,57.97
2022-12-12T12:20:32.146Z,57.39
2022-12-12T12:23:24.143Z,58.71
2022-12-12T12:26:09.115Z,58.67
2022-12-12T12:29:14.712Z,57.25
2022-12-12T12:32:28.715Z,56.69
2022-12-12T12:35:31.637Z,56.40
2022-12-12T12:38:39.066Z,56.65
2022-12-12T12:41:37.327Z,56.10
2022-12-12T12:44:23.370Z,55.84
2022-12-12T12:47:07.684Z,56.92
2022-12-12T12:49:42.371Z,57.65
2022-12-12T12:52:39.497Z,57.03
2022-12-12T12:55:19.449Z,58.12
2022-12-12T12:57:50.501Z,58.56
2022-12-12T13:00:23.456Z,58.80
2022-12-12T13:03:17.720Z,58.59
2022-12-12T13:05:59.858Z,58.00
2022-12-12T13:08:43.490Z,57.86
2022-12-12T13:11:34.291Z,57.38
2022-12-12T13:14:17.178Z,57.05
2022-12-12T13:16:45.543Z,58.13
2022-12-12T13:19:31.718Z,57.44
2022-12-12T13:22:33.261Z,58.15
2022-12-12T13:25:43.534Z,59.07
2022-12-12T13:28:18.057Z,59.30
2022-12-12T13:31:23.519Z,58.57
2022-12-12T13:34:05.740Z,59.06
2022-12-12T13:36:37.970Z,58.53
2022-12-12T13:39:09.463Z,59.33
2022-12-12T13:42:07.141Z,58.62
2022-12-12T13:44:42.070Z,59.73
2022-12-12T13:47:12.366Z,59.78
2022-12-12T13:50:04.667Z,58.84
2022-12-12T13:52:41.125Z,58.75
2022-12-12T13:55:15.932Z,58.04
2022-12-12T13:58:06.959Z,58.42
2022-12-12T14:00:38.659Z,57.64
2022-12-12T14:03:11.904Z,57.64
2022-12-12T14:05:47.432Z,57.50
2022-12-12T14:08:14.756Z,56.87
2022-12-12T14:10:45.595Z,57.61
2022-12-12T14:13:21.958Z,56.96
2022-12-12T14:15:57.679Z,57.50
2022-12-12T14:18:40.027Z,56.12
2022-12-12T14:21:13.243Z,56.19
2022-12-12T14:23:52.791Z,55.62
2022-12-12T14:26:29.185Z,55.64
2022-12-12T14:29:18.494Z,55.39
2022-12-12T14:31:58.024Z,55.64
2022-12-12T14:35:08.819Z,56.00
2022-12-12T14:38:09.346Z,56.06
2022-12-12T14:40:49.699Z,56.27
2022-12-12T14:43:26.258Z,55.37
2022-12-12T14:46:01.629Z,56.31
2022-12-12T14:48:33.251Z,55.91
2022-12-12T14:51:06.326Z,56.29
2022-12-12T14:53:39.182Z,56.73
2022-12-12T14:56:18.914Z,56.29
2022-12-12T14:58:58.141Z,55.62
2022-12-12T15:01:54.158Z,55.37
2022-12-12T15:04:25.648Z,55.96
2022-12-12T15:07:04.985Z,55.00
2022-12-12T15:09:39.585Z,55.46
2022-12-12T15:12:16.754Z,55.26
2022-12-12T15:14:46.940Z,55.87
2022-12-12T15:17:22.004Z,55.83
2022-12-12T15:19:53.823Z,56.01
2022-12-12T15:22:30.994Z,56.02
2022-12-12T15:25:01.785Z,56.39
2022-12-12T15:27:41.982Z,57.18
2022-12-12T15:30:37.042Z,58.09
2022-12-12T15:33:08.651Z,57.69
2022-12-12T15:35:35.828Z,57.48
2022-12-12T15:38:10.923Z,57.21
2022-12-12T15:40:39.700Z,58.32
2022-12-12T15:43:17.221Z,57.53
2022-12-12T15:45:55.403Z,57.30
2022-12-12T15:48:30.142Z,57.97
2022-12-12T15:51:06.321Z,58.47
2022-12-12T15:53:39.055Z,58.77
2022-12-12T15:56:19.686Z,59.11
2022-12-12T15:58:53.903Z,59.71
2022-12-12T16:01:28.385Z,59.78
2022-12-12T16:04:03.644Z,59.56
2022-12-12T16:06:44.658Z,60.01
2022-12-12T16:09:12.310Z,59.50
2022-12-12T16:11:50.778Z,59.48
2022-12-12T16:14:42.837Z,59.67
2022-12-12T16:17:16.168Z,59.33
2022-12-12T16:20:03.683Z,59.38
2022-12-12T16:22:43.329Z,58.91
2022-12-12T16:25:18.172Z,58.42
2022-12-12T16:27:50.687Z,57.74
2022-12-12T16:30:18.638Z,57.45
2022-12-12T16:32:46.176Z,57.89
2022-12-12T16:35:19.132Z,58.14
2022-12-12T16:37:46.958Z,58.33
2022-12-12T16:40:18.026Z,57.20
2022-12-12T16:43:07.838Z,56.81
2022-12-12T16:45:38.737Z,56.75
2022-12-12T16:48:22.183Z,57.28
2022-12-12T16:50:52.619Z,56.74
2022-12-12T16:53:20.158Z,56.56
2022-12-12T16:55:50.559Z,56.75
2022-12-12T16:58:21.265Z,56.40
2022-12-12T17:00:51.875Z,56.07
2022-12-12T17:03:20.706Z,56.76
2022-12-12T17:05:49.281Z,56.24
2022-12-12T17:08:18.288Z,56.37
2022-12-12T17:10:48.478Z,56.67
2022-12-12T17:13:19.964Z,56.76
2022-12-12T17:15:47.546Z,56.58
2022-12-12T17:18:15.011Z,56.45
2022-12-12T17:20:43.193Z,57.39
2022-12-12T17:23:28.378Z,56.96
2022-12-12T17:26:02.497Z,56.76
2022-12-12T17:28:32.609Z,57.29
2022-12-12T17:30:59.964Z,57.68
2022-12-12T17:33:27.418Z,57.49
2022-12-12T17:36:13.490Z,57.72
2022-12-12T17:38:40.770Z,57.57
2022-12-12T17:41:09.036Z,57.54
2022-12-12T17:43:37.560Z,57.08
2022-12-12T17:46:14.678Z,56.59
2022-12-12T17:48:46.855Z,56.35
2022-12-12T17:51:18.950Z,55.87
2022-12-12T17:53:46.186Z,55.46
2022-12-12T17:56:16.769Z,55.39
2022-12-12T17:58:46.598Z,55.56
2022-12-12T18:01:24.148Z,55.63
2022-12-12T18:03:53.043Z,56.09
2022-12-12T18:06:22.086Z,55.54
2022-12-12T18:08:50.461Z,55.78
2022-12-12T18:11:25.556Z,55.60
2022-12-12T18:13:57.945Z,55.33
2022-12-12T18:16:28.139Z,54.84
2022-12-12T18:18:56.668Z,54.20
2022-12-12T18:21:59.718Z,55.17
2022-12-12T18:24:17.870Z,55.09
2022-12-12T18:26:45.314Z,54.84
2022-12-12T18:29:13.867Z,54.69
2022-12-12T18:31:41.232Z,55.37
2022-12-12T18:34:08.778Z,54.65
2022-12-12T18:36:35.968Z,55.11
2022-12-12T18:39:05.396Z,55.22
2022-12-12T18:41:33.674Z,56.22
2022-12-12T18:44:12.754Z,55.29
2022-12-12T18:46:43.232Z,55.55
2022-12-12T18:49:15.832Z,55.93
2022-12-12T18:51:45.495Z,55.94
2022-12-12T18:54:15.951Z,55.25
2022-12-12T18:56:45.898Z,55.91
2022-12-12T18:59:14.272Z,54.86
2022-12-12T19:01:41.629Z,55.41
2022-12-12T19:04:12.577Z,55.58
2022-12-12T19:06:43.517Z,55.54
2022-12-12T19:09:15.646Z,55.50
2022-12-12T19:11:43.138Z,55.82
2022-12-12T19:14:13.165Z,55.50
2022-12-12T19:16:41.238Z,55.28
2022-12-12T19:19:12.353Z,54.65
2022-12-12T19:21:44.380Z,54.73
2022-12-12T19:24:15.137Z,55.52
2022-12-12T19:26:46.346Z,55.14
2022-12-12T19:29:22.869Z,55.56
2022-12-12T19:31:58.564Z,55.36
2022-12-12T19:34:27.130Z,55.34
2022-12-12T19:36:54.990Z,55.95
2022-12-12T19:39:22.168Z,55.75
2022-12-12T19:41:50.002Z,55.33
2022-12-12T19:44:17.335Z,55.49
2022-12-12T19:46:47.829Z,56.33
2022-12-12T19:49:16.847Z,55.59
2022-12-12T19:51:48.120Z,56.13
2022-12-12T19:54:18.572Z,56.26
2022-12-12T19:56:47.493Z,56.92
2022-12-12T19:59:17.927Z,56.45
2022-12-12T20:01:48.440Z,56.13
2022-12-12T20:04:18.677Z,55.80
2022-12-12T20:06:52.495Z,55.78
2022-12-12T20:09:30.923Z,56.42
2022-12-12T20:12:05.513Z,56.85
2022-12-12T20:14:35.819Z,56.79
2022-12-12T20:17:22.502Z,56.14
2022-12-12T20:19:49.755Z,55.90
2022-12-12T20:22:17.042Z,56.11
2022-12-12T20:24:45.967Z,55.71
2022-12-12T20:27:15.480Z,56.22
2022-12-12T20:29:43.005Z,55.49
2022-12-12T20:32:13.561Z,55.16
2022-12-12T20:34:41.404Z,55.51
2022-12-12T20:37:10.193Z,55.27
2022-12-12T20:39:38.968Z,56.03
2022-12-12T20:42:06.499Z,56.19
2022-12-12T20:44:33.795Z,56.23
2022-12-12T20:47:01.659Z,55.79
2022-12-12T20:49:30.569Z,56.11
2022-12-12T20:51:59.283Z,55.93
2022-12-12T20:57:11.608Z,55.29
2022-12-12T20:59:40.778Z,54.90
2022-12-12T21:02:12.163Z,55.10
2022-12-12T21:04:39.594Z,54.95
2022-12-12T21:07:07.197Z,54.93
2022-12-12T21:09:35.067Z,55.31
2022-12-12T21:12:02.381Z,55.79
2022-12-12T21:14:30.941Z,55.60
2022-12-12T21:16:59.604Z,55.36
2022-12-12T21:19:30.174Z,55.35
2022-12-12T21:21:57.800Z,55.26
2022-12-12T21:24:24.986Z,55.60
2022-12-12T21:26:52.248Z,55.96
2022-12-12T21:29:19.498Z,55.95
2022-12-12T21:31:51.937Z,55.80
2022-12-12T21:34:23.756Z,55.98
2022-12-12T21:36:55.996Z,55.55
2022-12-12T21:39:26.936Z,54.98
2022-12-12T21:41:55.720Z,55.18
2022-12-12T21:44:23.640Z,55.00
2022-12-12T21:46:50.908Z,55.40
2022-12-12T21:49:28.252Z,54.90
2022-12-12T21:51:58.084Z,55.33
2022-12-12T21:54:29.025Z,55.38
2022-12-12T21:57:00.960Z,55.78
2022-12-12T21:59:28.941Z,55.87
2022-12-12T22:02:00.925Z,55.75
2022-12-12T22:04:28.408Z,55.11
2022-12-12T22:06:57.365Z,55.08
2022-12-12T22:09:25.119Z,54.33
2022-12-12T22:12:04.358Z,55.49
2022-12-12T22:14:34.934Z,55.87
2022-12-12T22:17:03.751Z,56.22
2022-12-12T22:19:31.105Z,56.03
2022-12-12T22:21:58.230Z,55.60
2022-12-12T22:24:26.368Z,55.39
2022-12-12T22:26:53.639Z,55.08
2022-12-12T22:29:20.977Z,55.13
2022-12-12T22:31:50.243Z,54.95
2022-12-12T22:34:21.703Z,54.97
2022-12-12T22:36:48.882Z,55.16
2022-12-12T22:39:20.209Z,55.13
2022-12-12T22:41:47.531Z,55.07
2022-12-12T22:44:17.185Z,54.91
2022-12-12T22:46:46.577Z,55.40
2022-12-12T22:49:16.750Z,55.37
2022-12-12T22:51:44.878Z,54.73
2022-12-12T22:54:12.396Z,55.24
2022-12-12T22:56:40.858Z,54.84
2022-12-12T22:59:11.387Z,54.69
2022-12-12T23:01:38.500Z,54.91
2022-12-12T23:04:06.319Z,54.83
2022-12-12T23:06:36.081Z,54.83
2022-12-12T23:09:14.418Z,54.50
2022-12-12T23:11:42.350Z,54.69
2022-12-12T23:14:14.842Z,54.43
2022-12-12T23:16:43.199Z,54.70
2022-12-12T23:19:13.163Z,54.60
2022-12-12T23:21:40.424Z,54.30
2022-12-12T23:24:08.087Z,54.44
2022-12-12T23:26:37.175Z,54.11
2022-12-12T23:29:08.175Z,54.53
2022-12-12T23:31:37.793Z,54.12
2022-12-12T23:34:09.797Z,54.30
2022-12-12T23:36:38.384Z,54.04
2022-12-12T23:39:07.844Z,53.95
2022-12-12T23:41:36.761Z,54.15
2022-12-12T23:44:05.512Z,53.81
2022-12-12T23:46:34.349Z,54.06
2022-12-12T23:49:09.333Z,54.28
2022-12-12T23:51:49.324Z,53.94
2022-12-12T23:54:20.541Z,53.55
2022-12-12T23:56:49.546Z,53.65
2022-12-12T23:59:18.877Z,53.81
